Time,TemperatureF,DewpointF,PressureIn,WindDirection,WindDirectionDegrees,WindSpeedMPH,WindSpeedGustMPH,Humidity,HourlyPrecipIn,Conditions,Clouds,dailyrainin,SoftwareType,DateUTC
2013-08-03 12:11:00,65.3,54.9,29.70,SW,225,4.2,-999.0,69,-99.99,,,0.00,Acu-Link.com,2013-08-03 16:11:00,
2013-08-03 12:26:00,65.8,53.3,29.69,WSW,247,7.8,-999.0,64,-99.99,,,0.00,Acu-Link.com,2013-08-03 16:26:00,
2013-08-03 12:42:00,68.0,54.5,29.69,West,270,6.3,-999.0,62,-99.99,,,0.00,Acu-Link.com,2013-08-03 16:42:00,
2013-08-03 12:57:00,66.4,54.7,29.68,South,180,1.1,-999.0,66,-99.99,,,0.00,Acu-Link.com,2013-08-03 16:57:00,
2013-08-03 13:12:00,66.9,55.2,29.68,West,270,7.8,-999.0,66,-99.99,,,0.00,Acu-Link.com,2013-08-03 17:12:00,
2013-08-03 13:27:00,65.7,52.3,29.70,WSW,247,11.4,-999.0,62,-99.99,,,0.00,Acu-Link.com,2013-08-03 17:27:00,
2013-08-03 13:43:00,64.2,53.0,29.70,WSW,247,6.3,-999.0,67,-99.99,,,0.00,Acu-Link.com,2013-08-03 17:43:00,
2013-08-03 13:58:00,63.5,54.3,29.70,West,270,5.3,-999.0,72,-99.99,,,0.00,Acu-Link.com,2013-08-03 17:58:00,
2013-08-03 14:13:00,64.0,54.4,29.71,WSW,247,8.3,-999.0,71,-99.99,,,0.00,Acu-Link.com,2013-08-03 18:13:00,
2013-08-03 14:30:00,64.6,55.0,29.70,West,270,7.8,-999.0,71,-99.99,,,0.00,Acu-Link.com,2013-08-03 18:30:00,
2013-08-03 14:45:00,64.0,53.6,29.70,WSW,247,9.9,-999.0,69,-99.99,,,0.00,Acu-Link.com,2013-08-03 18:45:00,
2013-08-03 15:00:00,64.2,54.2,29.70,WSW,247,7.3,-999.0,70,-99.99,,,0.00,Acu-Link.com,2013-08-03 19:00:00,
2013-08-03 15:16:00,65.3,53.6,29.69,SW,225,14.0,-999.0,66,-99.99,,,0.00,Acu-Link.com,2013-08-03 19:16:00,
2013-08-03 15:31:00,63.9,53.5,29.71,West,270,6.3,-999.0,69,-99.99,,,0.00,Acu-Link.com,2013-08-03 19:31:00,
2013-08-03 15:47:00,64.8,54.0,29.69,West,270,8.9,-999.0,68,-99.99,,,0.00,Acu-Link.com,2013-08-03 19:47:00,
2013-08-03 16:02:00,64.8,54.4,29.70,West,270,8.3,-999.0,69,-99.99,,,0.00,Acu-Link.com,2013-08-03 20:02:00,
2013-08-03 16:17:00,64.0,54.8,29.71,WSW,247,8.9,-999.0,72,-99.99,,,0.00,Acu-Link.com,2013-08-03 20:17:00,
2013-08-03 16:32:00,65.7,55.6,29.69,West,270,7.3,-999.0,70,-99.99,,,0.00,Acu-Link.com,2013-08-03 20:32:00,
2013-08-03 16:47:00,64.0,55.2,29.69,WSW,247,8.9,-999.0,73,-99.99,,,0.00,Acu-Link.com,2013-08-03 20:47:00,
2013-08-03 17:03:00,68.0,56.6,29.70,West,270,5.8,-999.0,67,-99.99,,,0.00,Acu-Link.com,2013-08-03 21:03:00,
2013-08-03 17:18:00,66.7,55.4,29.69,WSW,247,13.5,-999.0,67,-99.99,,,0.00,Acu-Link.com,2013-08-03 21:18:00,
2013-08-03 17:33:00,67.1,55.4,29.69,WSW,247,10.9,-999.0,66,-99.99,,,0.00,Acu-Link.com,2013-08-03 21:33:00,
2013-08-03 17:48:00,64.9,54.1,29.70,WSW,247,6.3,-999.0,68,-99.99,,,0.00,Acu-Link.com,2013-08-03 21:48:00,
2013-08-03 18:04:00,63.7,54.5,29.71,West,270,11.4,-999.0,72,-99.99,,,0.00,Acu-Link.com,2013-08-03 22:04:00,
2013-08-03 18:19:00,58.6,53.8,29.72,West,270,5.3,-999.0,84,-99.99,,,0.09,Acu-Link.com,2013-08-03 22:19:00,
2013-08-03 18:34:00,58.5,55.3,29.72,West,270,3.7,-999.0,89,-99.99,,,0.11,Acu-Link.com,2013-08-03 22:34:00,
2013-08-03 18:50:00,58.3,55.4,29.72,SSW,202,2.2,-999.0,90,-99.99,,,0.11,Acu-Link.com,2013-08-03 22:50:00,
2013-08-03 19:05:00,58.6,55.7,29.72,North,0,0.0,-999.0,90,-99.99,,,0.11,Acu-Link.com,2013-08-03 23:05:00,
2013-08-03 19:20:00,59.0,56.1,29.74,NW,315,0.0,-999.0,90,-99.99,,,0.11,Acu-Link.com,2013-08-03 23:20:00,
2013-08-03 19:35:00,58.6,56.0,29.73,West,270,1.1,-999.0,91,-99.99,,,0.11,Acu-Link.com,2013-08-03 23:35:00,
2013-08-03 20:09:00,58.3,56.0,29.75,WSW,247,3.7,-999.0,92,-99.99,,,0.11,Acu-Link.com,2013-08-04 00:09:00,
2013-08-03 20:24:00,58.1,55.5,29.73,West,270,5.8,-999.0,91,-99.99,,,0.11,Acu-Link.com,2013-08-04 00:24:00,
2013-08-03 20:39:00,57.7,55.1,29.74,West,270,0.0,-999.0,91,-99.99,,,0.11,Acu-Link.com,2013-08-04 00:39:00,
2013-08-03 20:54:00,57.7,54.8,29.74,WNW,292,5.3,-999.0,90,-99.99,,,0.11,Acu-Link.com,2013-08-04 00:54:00,
2013-08-03 21:10:00,57.7,54.8,29.74,North,0,2.7,-999.0,90,-99.99,,,0.11,Acu-Link.com,2013-08-04 01:10:00,
2013-08-03 21:25:00,57.2,54.3,29.76,West,270,6.8,-999.0,90,-99.99,,,0.11,Acu-Link.com,2013-08-04 01:25:00,
2013-08-03 21:40:00,57.2,54.3,29.76,WSW,247,6.3,-999.0,90,-99.99,,,0.11,Acu-Link.com,2013-08-04 01:40:00,
2013-08-03 21:55:00,56.8,53.9,29.76,NE,45,0.0,-999.0,90,-99.99,,,0.11,Acu-Link.com,2013-08-04 01:55:00,